createdAt,value
2022-12-06T00:01:34.841Z,4.80
2022-12-06T00:04:03.781Z,4.80
2022-12-06T00:06:33.300Z,4.80
2022-12-06T00:09:01.211Z,5.00
2022-12-06T00:11:34.125Z,4.80
2022-12-06T00:14:04.948Z,4.80
2022-12-06T00:16:33.040Z,4.90
2022-12-06T00:19:01.538Z,4.90
2022-12-06T00:21:31.957Z,5.00
2022-12-06T00:24:08.667Z,5.00
2022-12-06T00:26:37.857Z,4.90
2022-12-06T00:29:08.038Z,5.00
2022-12-06T00:31:35.802Z,4.90
2022-12-06T00:34:04.944Z,5.00
2022-12-06T00:36:35.273Z,5.10
2022-12-06T00:39:09.566Z,5.00
2022-12-06T00:41:37.322Z,5.00
2022-12-06T00:44:04.881Z,5.10
2022-12-06T00:46:33.273Z,5.00
2022-12-06T00:49:02.308Z,5.00
2022-12-06T00:51:31.638Z,5.10
2022-12-06T00:53:59.623Z,5.10
2022-12-06T00:56:27.568Z,5.10
2022-12-06T00:58:55.561Z,5.20
2022-12-06T01:01:28.590Z,5.10
2022-12-06T01:03:58.520Z,5.30
2022-12-06T01:06:30.620Z,5.20
2022-12-06T01:09:00.749Z,5.30
2022-12-06T01:11:29.225Z,5.20
2022-12-06T01:13:57.241Z,5.20
2022-12-06T01:16:27.996Z,5.40
2022-12-06T01:19:01.019Z,5.30
2022-12-06T01:21:29.332Z,5.30
2022-12-06T01:23:57.401Z,5.30
2022-12-06T01:26:27.159Z,5.30
2022-12-06T01:28:55.227Z,5.40
2022-12-06T01:31:22.750Z,5.40
2022-12-06T01:33:50.554Z,5.20
2022-12-06T01:36:23.655Z,5.40
2022-12-06T01:38:57.022Z,5.30
2022-12-06T01:41:26.642Z,5.20
2022-12-06T01:43:55.282Z,5.10
2022-12-06T01:46:38.490Z,5.10
2022-12-06T01:49:11.927Z,5.10
2022-12-06T01:51:44.068Z,5.20
2022-12-06T01:54:15.049Z,5.00
2022-12-06T01:56:43.152Z,4.90
2022-12-06T01:59:11.016Z,4.80
2022-12-06T02:01:39.905Z,4.80
2022-12-06T02:04:08.012Z,4.90
2022-12-06T02:06:36.084Z,4.80
2022-12-06T02:09:05.967Z,4.80
2022-12-06T02:11:35.403Z,4.80
2022-12-06T02:14:07.490Z,4.90
2022-12-06T02:16:55.898Z,4.90
2022-12-06T02:19:51.537Z,5.00
2022-12-06T02:22:19.049Z,5.00
2022-12-06T02:25:20.040Z,4.90
2022-12-06T02:27:50.310Z,4.70
2022-12-06T02:30:48.782Z,4.80
2022-12-06T02:33:28.281Z,4.80
2022-12-06T02:36:07.616Z,4.80
2022-12-06T02:39:04.258Z,4.70
2022-12-06T02:41:42.315Z,4.60
2022-12-06T02:44:19.809Z,4.70
2022-12-06T02:46:49.260Z,4.80
2022-12-06T02:49:18.558Z,4.80
2022-12-06T02:51:47.705Z,4.70
2022-12-06T02:54:16.411Z,4.70
2022-12-06T02:56:43.965Z,5.00
2022-12-06T02:59:11.409Z,4.90
2022-12-06T03:01:45.579Z,4.90
2022-12-06T03:04:35.123Z,4.90
2022-12-06T03:07:30.916Z,4.90
2022-12-06T03:10:01.533Z,5.00
2022-12-06T03:12:31.184Z,4.80
2022-12-06T03:15:14.308Z,4.80
2022-12-06T03:17:59.158Z,4.90
2022-12-06T03:20:34.715Z,4.80
2022-12-06T03:23:05.613Z,4.90
2022-12-06T03:25:35.459Z,4.70
2022-12-06T03:28:06.958Z,4.70
2022-12-06T03:30:35.779Z,4.80
2022-12-06T03:33:04.087Z,4.80
2022-12-06T03:35:34.353Z,4.80
2022-12-06T03:38:10.088Z,4.90
2022-12-06T03:40:43.380Z,5.00
2022-12-06T03:43:11.519Z,4.90
2022-12-06T03:46:14.641Z,5.10
2022-12-06T03:48:44.809Z,4.90
2022-12-06T03:51:22.130Z,4.90
2022-12-06T03:53:53.545Z,5.00
2022-12-06T03:56:24.405Z,4.90
2022-12-06T03:58:51.954Z,5.00
2022-12-06T04:01:19.522Z,5.00
2022-12-06T04:03:47.197Z,4.90
2022-12-06T04:06:14.887Z,4.80
2022-12-06T04:08:42.454Z,4.90
2022-12-06T04:11:09.992Z,4.80
2022-12-06T04:13:37.607Z,4.90
2022-12-06T04:16:25.404Z,5.00
2022-12-06T04:18:52.959Z,4.90
2022-12-06T04:21:32.814Z,5.00
2022-12-06T04:24:00.552Z,4.80
2022-12-06T04:26:28.029Z,4.90
2022-12-06T04:29:14.173Z,5.00
2022-12-06T04:32:00.542Z,4.90
2022-12-06T04:34:46.645Z,4.80
2022-12-06T04:37:32.838Z,5.00
2022-12-06T04:40:00.834Z,4.90
2022-12-06T04:42:46.751Z,4.90
2022-12-06T04:45:14.288Z,4.90
2022-12-06T04:47:41.769Z,4.90
2022-12-06T04:50:09.481Z,4.80
2022-12-06T04:52:36.952Z,4.80
2022-12-06T04:55:05.570Z,4.90
2022-12-06T04:57:33.193Z,4.80
2022-12-06T05:00:01.029Z,4.90
2022-12-06T05:02:28.786Z,4.80
2022-12-06T05:04:56.472Z,4.90
2022-12-06T05:07:24.001Z,4.80
2022-12-06T05:09:51.491Z,4.90
2022-12-06T05:12:18.945Z,4.90
2022-12-06T05:14:46.433Z,4.90
2022-12-06T05:17:13.917Z,4.90
2022-12-06T05:19:41.400Z,4.90
2022-12-06T05:22:08.899Z,4.90
2022-12-06T05:24:36.455Z,4.90
2022-12-06T05:27:04.044Z,5.00
2022-12-06T05:29:31.646Z,4.90
2022-12-06T05:31:59.128Z,4.90
2022-12-06T05:34:26.713Z,5.00
2022-12-06T05:36:54.198Z,5.00
2022-12-06T05:39:21.987Z,5.00
2022-12-06T05:41:49.531Z,5.00
2022-12-06T05:44:17.072Z,5.00
2022-12-06T05:46:44.487Z,4.90
2022-12-06T05:49:11.976Z,5.10
2022-12-06T05:51:39.693Z,4.90
2022-12-06T05:54:07.282Z,4.80
2022-12-06T05:56:34.910Z,4.70
2022-12-06T05:59:03.493Z,4.60
2022-12-06T06:01:31.344Z,4.50
2022-12-06T06:03:58.829Z,4.60
2022-12-06T06:06:26.302Z,4.50
2022-12-06T06:08:55.086Z,4.40
2022-12-06T06:11:22.725Z,4.40
2022-12-06T06:13:50.264Z,4.50
2022-12-06T06:16:17.908Z,4.30
2022-12-06T06:18:45.491Z,4.30
2022-12-06T06:21:13.496Z,4.30
2022-12-06T06:23:41.024Z,4.30
2022-12-06T06:26:10.524Z,4.30
2022-12-06T06:28:38.561Z,4.40
2022-12-06T06:31:06.938Z,4.50
2022-12-06T06:33:35.598Z,4.50
2022-12-06T06:36:03.145Z,4.40
2022-12-06T06:38:30.820Z,4.40
2022-12-06T06:41:03.247Z,4.40
2022-12-06T06:43:31.238Z,4.40
2022-12-06T06:46:01.377Z,4.30
2022-12-06T06:48:31.759Z,4.30
2022-12-06T06:51:06.972Z,4.30
2022-12-06T06:53:34.731Z,4.30
2022-12-06T06:56:02.816Z,4.30
2022-12-06T06:58:30.321Z,4.20
2022-12-06T07:01:00.283Z,4.20
2022-12-06T07:03:29.009Z,4.20
2022-12-06T07:06:02.457Z,4.30
2022-12-06T07:08:31.349Z,4.30
2022-12-06T07:10:59.044Z,4.40
2022-12-06T07:13:28.414Z,4.30
2022-12-06T07:15:56.665Z,4.20
2022-12-06T07:18:24.740Z,4.20
2022-12-06T07:21:04.065Z,4.20
2022-12-06T07:23:34.045Z,4.40
2022-12-06T07:26:18.606Z,4.30
2022-12-06T07:28:49.178Z,4.30
2022-12-06T07:31:22.018Z,4.30
2022-12-06T07:33:53.689Z,4.30
2022-12-06T07:36:22.856Z,4.30
2022-12-06T07:38:56.794Z,4.50
2022-12-06T07:41:45.384Z,4.60
2022-12-06T07:44:40.328Z,4.50
2022-12-06T07:47:07.924Z,4.60
2022-12-06T07:49:35.412Z,4.60
2022-12-06T07:52:02.933Z,4.60
2022-12-06T07:54:30.492Z,4.50
2022-12-06T07:56:58.267Z,4.50
2022-12-06T07:59:25.950Z,4.60
2022-12-06T08:01:54.054Z,4.60
2022-12-06T08:04:21.942Z,4.60
2022-12-06T08:06:49.560Z,4.70
2022-12-06T08:09:17.151Z,4.70
2022-12-06T08:11:44.676Z,4.70
2022-12-06T08:14:12.257Z,4.70
2022-12-06T08:16:42.739Z,4.80
2022-12-06T08:19:10.266Z,4.70
2022-12-06T08:21:37.817Z,4.80
2022-12-06T08:24:05.642Z,4.80
2022-12-06T08:26:33.120Z,4.80
2022-12-06T08:29:01.648Z,4.80
2022-12-06T08:31:30.514Z,4.80
2022-12-06T08:33:58.284Z,4.80
2022-12-06T08:36:25.895Z,4.80
2022-12-06T08:38:53.660Z,4.80
2022-12-06T08:41:40.982Z,4.90
2022-12-06T08:44:12.936Z,4.90
2022-12-06T08:46:41.002Z,5.00
2022-12-06T08:49:08.962Z,5.10
2022-12-06T08:51:38.307Z,5.00
2022-12-06T08:54:07.284Z,5.00
2022-12-06T08:56:36.624Z,4.90
2022-12-06T08:59:04.163Z,4.90
2022-12-06T09:01:37.428Z,5.00
2022-12-06T09:04:08.137Z,4.90
2022-12-06T09:06:41.158Z,5.10
2022-12-06T09:09:10.367Z,5.10
2022-12-06T09:11:38.897Z,5.10
2022-12-06T09:14:08.613Z,5.10
2022-12-06T09:16:36.609Z,5.20
2022-12-06T09:19:04.756Z,5.10
2022-12-06T09:21:33.703Z,5.10
2022-12-06T09:24:01.577Z,5.10
2022-12-06T09:26:29.843Z,5.10
2022-12-06T09:28:58.327Z,5.00
2022-12-06T09:31:26.221Z,5.00
2022-12-06T09:33:54.570Z,4.90
2022-12-06T09:36:26.475Z,4.80
2022-12-06T09:39:12.393Z,4.90
2022-12-06T09:41:56.642Z,5.00
2022-12-06T09:44:24.166Z,4.90
2022-12-06T09:47:10.089Z,4.90
2022-12-06T09:49:58.159Z,5.00
2022-12-06T09:52:31.942Z,4.90
2022-12-06T09:55:13.067Z,5.00
2022-12-06T09:58:07.046Z,5.00
2022-12-06T10:00:44.960Z,5.10
2022-12-06T10:03:27.587Z,5.10
2022-12-06T10:06:18.431Z,5.10
2022-12-06T10:09:12.279Z,5.00
2022-12-06T10:12:04.896Z,5.10
2022-12-06T10:14:44.180Z,5.10
2022-12-06T10:17:29.862Z,5.10
2022-12-06T10:20:14.107Z,5.10
2022-12-06T10:23:05.736Z,5.20
2022-12-06T10:25:41.947Z,5.20
2022-12-06T10:28:22.214Z,5.30
2022-12-06T10:30:56.061Z,5.30
2022-12-06T10:34:01.923Z,5.30
2022-12-06T10:36:44.840Z,5.30
2022-12-06T10:39:20.084Z,5.30
2022-12-06T10:42:06.838Z,5.30
2022-12-06T10:44:45.354Z,5.30
2022-12-06T10:47:21.516Z,5.30
2022-12-06T10:50:18.163Z,5.30
2022-12-06T10:53:03.687Z,5.30
2022-12-06T10:55:52.040Z,5.40
2022-12-06T10:58:19.500Z,5.40
2022-12-06T11:00:59.969Z,5.40
2022-12-06T11:03:38.038Z,5.40
2022-12-06T11:06:34.346Z,5.50
2022-12-06T11:09:36.443Z,5.50
2022-12-06T11:12:20.613Z,5.50
2022-12-06T11:14:53.962Z,5.60
2022-12-06T11:17:30.221Z,5.60
2022-12-06T11:20:03.601Z,5.60
2022-12-06T11:22:37.336Z,5.60
2022-12-06T11:25:31.749Z,5.60
2022-12-06T11:28:21.812Z,5.70
2022-12-06T11:30:52.977Z,5.70
2022-12-06T11:33:32.034Z,5.60
2022-12-06T11:36:04.832Z,5.60
2022-12-06T11:38:34.420Z,5.40
2022-12-06T11:41:04.920Z,5.30
2022-12-06T11:43:36.003Z,5.30
2022-12-06T11:46:05.717Z,5.30
2022-12-06T11:48:35.638Z,5.30
2022-12-06T11:51:03.160Z,5.40
2022-12-06T11:53:39.456Z,5.50
2022-12-06T11:56:15.413Z,5.50
2022-12-06T11:58:52.684Z,5.60
2022-12-06T12:01:20.083Z,5.60
2022-12-06T12:03:48.614Z,5.60
2022-12-06T12:06:21.688Z,5.70
2022-12-06T12:09:07.964Z,5.70
2022-12-06T12:11:40.089Z,5.80
2022-12-06T12:14:17.230Z,5.80
2022-12-06T12:16:48.489Z,5.80
2022-12-06T12:19:52.120Z,5.90
2022-12-06T12:22:36.148Z,6.00
2022-12-06T12:25:31.170Z,6.10
2022-12-06T12:28:00.595Z,6.10
2022-12-06T12:30:29.493Z,6.10
2022-12-06T12:33:05.839Z,6.00
2022-12-06T12:35:37.743Z,6.10
2022-12-06T12:38:18.889Z,6.10
2022-12-06T12:40:47.699Z,6.10
2022-12-06T12:43:24.788Z,6.00
2022-12-06T12:46:10.467Z,6.00
2022-12-06T12:48:39.951Z,5.90
2022-12-06T12:51:29.659Z,5.80
2022-12-06T12:54:01.300Z,5.70
2022-12-06T12:56:32.117Z,5.50
2022-12-06T12:59:00.685Z,5.30
2022-12-06T13:01:55.997Z,5.30
2022-12-06T13:04:30.871Z,5.30
2022-12-06T13:07:06.172Z,5.20
2022-12-06T13:14:22.882Z,5.20
2022-12-06T13:16:54.542Z,5.10
2022-12-06T13:19:31.174Z,5.00
2022-12-06T13:22:02.087Z,5.00
2022-12-06T13:24:31.937Z,5.00
2022-12-06T13:27:08.256Z,5.00
2022-12-06T13:29:42.298Z,4.90
2022-12-06T13:32:21.961Z,4.90
2022-12-06T13:34:53.628Z,5.00
2022-12-06T13:37:33.732Z,5.00
2022-12-06T13:40:02.851Z,5.00
2022-12-06T13:42:36.573Z,5.10
2022-12-06T13:45:06.763Z,5.00
2022-12-06T13:47:34.739Z,5.00
2022-12-06T13:50:17.383Z,5.00
2022-12-06T13:52:47.710Z,5.10
2022-12-06T13:55:24.346Z,5.10
2022-12-06T13:58:00.931Z,5.10
2022-12-06T14:00:28.607Z,5.00
2022-12-06T14:03:02.548Z,5.00
2022-12-06T14:06:01.151Z,5.00
2022-12-06T14:08:33.653Z,5.20
2022-12-06T14:11:15.782Z,5.10
2022-12-06T14:13:49.463Z,5.10
2022-12-06T14:16:28.128Z,5.20
2022-12-06T14:18:55.842Z,5.20
2022-12-06T14:21:24.949Z,5.30
2022-12-06T14:23:52.760Z,5.30
2022-12-06T14:26:27.415Z,5.30
2022-12-06T14:28:58.714Z,5.30
2022-12-06T14:31:26.576Z,5.30
2022-12-06T14:33:55.787Z,5.30
2022-12-06T14:36:25.665Z,5.20
2022-12-06T14:38:58.128Z,5.20
2022-12-06T14:41:50.784Z,5.20
2022-12-06T14:44:19.892Z,5.20
2022-12-06T14:46:48.751Z,5.10
2022-12-06T14:49:38.850Z,5.10
2022-12-06T14:52:23.098Z,5.10
2022-12-06T14:54:52.355Z,5.00
2022-12-06T14:57:27.774Z,4.90
2022-12-06T15:00:16.219Z,4.80
2022-12-06T15:03:03.546Z,4.80
2022-12-06T15:18:53.298Z,4.50
2022-12-06T15:21:21.063Z,4.40
2022-12-06T15:23:55.502Z,4.50
2022-12-06T15:26:24.669Z,4.50
2022-12-06T15:28:52.757Z,4.40
2022-12-06T15:31:30.107Z,4.50
2022-12-06T15:33:57.945Z,4.40
2022-12-06T15:36:33.296Z,4.40
2022-12-06T15:39:01.138Z,4.50
2022-12-06T15:41:29.171Z,4.50
2022-12-06T15:43:57.809Z,4.50
2022-12-06T15:46:29.493Z,4.50
2022-12-06T15:48:57.177Z,4.60
2022-12-06T15:51:27.249Z,4.50
2022-12-06T15:53:57.387Z,4.50
2022-12-06T15:56:28.630Z,4.50
2022-12-06T15:58:56.473Z,4.60
2022-12-06T16:01:29.197Z,4.40
2022-12-06T16:03:58.018Z,4.40
2022-12-06T16:06:27.298Z,4.30
2022-12-06T16:08:55.161Z,4.30
2022-12-06T16:11:25.567Z,4.30
2022-12-06T16:13:53.234Z,4.30
2022-12-06T16:16:22.695Z,4.30
2022-12-06T16:18:50.852Z,4.30
2022-12-06T16:21:34.476Z,4.30
2022-12-06T16:24:13.003Z,4.30
2022-12-06T16:26:44.494Z,4.30
2022-12-06T16:29:23.239Z,4.20
2022-12-06T16:31:52.233Z,4.10
2022-12-06T16:34:19.920Z,4.30
2022-12-06T16:37:05.123Z,4.30
2022-12-06T16:39:34.241Z,4.20
2022-12-06T16:42:03.965Z,4.30
2022-12-06T16:44:31.831Z,4.20
2022-12-06T16:46:59.444Z,4.20
2022-12-06T16:49:46.961Z,4.30
2022-12-06T16:52:16.651Z,4.20
2022-12-06T16:54:44.366Z,4.10
2022-12-06T16:57:13.251Z,4.20
2022-12-06T16:59:42.524Z,4.10
2022-12-06T17:02:31.172Z,4.00
2022-12-06T17:05:20.102Z,4.00
2022-12-06T17:07:47.742Z,3.90
2022-12-06T17:10:18.441Z,4.00
2022-12-06T17:12:47.832Z,4.00
2022-12-06T17:15:18.031Z,4.00
2022-12-06T17:17:45.889Z,3.90
2022-12-06T17:20:15.021Z,3.90
2022-12-06T17:22:42.684Z,3.90
2022-12-06T17:25:11.091Z,3.90
2022-12-06T17:27:39.637Z,3.90
2022-12-06T17:30:11.292Z,4.00
2022-12-06T17:32:38.818Z,4.00
2022-12-06T17:35:06.790Z,4.10
2022-12-06T17:37:34.319Z,4.00
2022-12-06T17:40:02.076Z,4.00
2022-12-06T17:42:48.384Z,3.90
2022-12-06T17:45:17.203Z,3.90
2022-12-06T17:47:47.082Z,3.90
2022-12-06T17:50:14.535Z,3.80
2022-12-06T17:52:42.024Z,3.80
2022-12-06T17:55:13.062Z,3.80
2022-12-06T17:57:40.561Z,3.70
2022-12-06T18:00:08.641Z,3.60
2022-12-06T18:02:36.234Z,3.60
2022-12-06T18:05:04.514Z,3.50
2022-12-06T18:07:32.193Z,3.50
2022-12-06T18:09:59.662Z,3.50
2022-12-06T18:12:31.851Z,3.40
2022-12-06T18:15:02.075Z,3.40
2022-12-06T18:17:29.811Z,3.50
2022-12-06T18:19:57.440Z,3.40
2022-12-06T18:22:25.208Z,3.50
2022-12-06T18:24:52.732Z,3.40
2022-12-06T18:27:20.342Z,3.40
2022-12-06T18:29:47.979Z,3.40
2022-12-06T18:32:15.534Z,3.50
2022-12-06T18:34:43.027Z,3.50
2022-12-06T18:37:10.553Z,3.50
2022-12-06T18:39:38.067Z,3.50
2022-12-06T18:42:05.632Z,3.40
2022-12-06T18:44:33.219Z,3.40
2022-12-06T18:47:00.721Z,3.40
2022-12-06T18:49:28.951Z,3.20
2022-12-06T18:51:56.557Z,3.20
2022-12-06T18:54:24.233Z,3.20
2022-12-06T18:56:51.704Z,3.20
2022-12-06T18:59:23.134Z,3.20
2022-12-06T19:01:53.679Z,3.10
2022-12-06T19:04:21.274Z,3.10
2022-12-06T19:06:48.768Z,3.10
2022-12-06T19:09:16.438Z,3.10
2022-12-06T19:11:46.444Z,3.10
2022-12-06T19:14:14.924Z,3.20
2022-12-06T19:16:48.212Z,3.00
2022-12-06T19:19:19.298Z,3.00
2022-12-06T19:21:48.298Z,3.10
2022-12-06T19:24:20.153Z,3.20
2022-12-06T19:26:49.000Z,3.20
2022-12-06T19:29:16.845Z,3.20
2022-12-06T19:31:45.072Z,3.30
2022-12-06T19:34:27.447Z,3.20
2022-12-06T19:36:55.446Z,3.20
2022-12-06T19:39:24.082Z,3.20
2022-12-06T19:42:10.129Z,3.20
2022-12-06T19:44:37.633Z,3.20
2022-12-06T19:47:05.269Z,3.30
2022-12-06T19:49:32.906Z,3.40
2022-12-06T19:52:00.799Z,3.40
2022-12-06T19:54:31.040Z,3.50
2022-12-06T19:57:00.524Z,3.50
2022-12-06T19:59:30.789Z,3.50
2022-12-06T20:01:58.712Z,3.50
2022-12-06T20:04:29.753Z,3.40
2022-12-06T20:06:57.834Z,3.50
2022-12-06T20:09:27.269Z,3.40
2022-12-06T20:12:01.983Z,3.40
2022-12-06T20:14:40.851Z,3.40
2022-12-06T20:17:17.495Z,3.50
2022-12-06T20:19:49.262Z,3.60
2022-12-06T20:22:19.335Z,3.50
2022-12-06T20:24:46.928Z,3.60
2022-12-06T20:27:14.408Z,3.50
2022-12-06T20:29:42.006Z,3.50
2022-12-06T20:32:10.488Z,3.50
2022-12-06T20:34:38.440Z,3.60
2022-12-06T20:37:06.759Z,3.50
2022-12-06T20:39:37.514Z,3.60
2022-12-06T20:42:07.171Z,3.60
2022-12-06T20:44:35.630Z,3.60
2022-12-06T20:47:03.471Z,3.60
2022-12-06T20:49:31.289Z,3.60
2022-12-06T20:52:00.592Z,3.50
2022-12-06T20:54:28.120Z,3.50
2022-12-06T20:56:55.870Z,3.40
2022-12-06T20:59:23.574Z,3.40
2022-12-06T21:01:51.153Z,3.40
2022-12-06T21:04:18.828Z,3.40
2022-12-06T21:06:46.288Z,3.40
2022-12-06T21:09:13.826Z,3.40
2022-12-06T21:11:41.395Z,3.30
2022-12-06T21:14:11.359Z,3.20
2022-12-06T21:16:41.249Z,3.20
2022-12-06T21:19:12.597Z,3.20
2022-12-06T21:21:43.435Z,3.20
2022-12-06T21:24:13.945Z,3.30
2022-12-06T21:26:41.997Z,3.30
2022-12-06T21:29:30.056Z,3.30
2022-12-06T21:32:01.695Z,3.30
2022-12-06T21:34:29.348Z,3.40
2022-12-06T21:36:56.877Z,3.40
2022-12-06T21:39:24.392Z,3.40
2022-12-06T21:41:53.253Z,3.30
2022-12-06T21:44:20.919Z,3.20
2022-12-06T21:46:52.368Z,3.40
2022-12-06T21:49:20.262Z,3.30
2022-12-06T21:51:47.852Z,3.30
2022-12-06T21:54:15.369Z,3.40
2022-12-06T21:56:42.937Z,3.50
2022-12-06T21:59:10.634Z,3.50
2022-12-06T22:01:38.900Z,3.50
2022-12-06T22:04:06.645Z,3.50
2022-12-06T22:06:36.051Z,3.50
2022-12-06T22:09:06.134Z,3.50
2022-12-06T22:11:34.752Z,3.60
2022-12-06T22:14:04.837Z,3.70
2022-12-06T22:16:32.667Z,3.70
2022-12-06T22:19:00.291Z,3.60
2022-12-06T22:21:30.511Z,3.60
2022-12-06T22:23:58.685Z,3.50
2022-12-06T22:26:30.959Z,3.40
2022-12-06T22:29:00.144Z,3.40
2022-12-06T22:31:30.736Z,3.30
2022-12-06T22:33:59.170Z,3.20
2022-12-06T22:36:27.631Z,3.30
2022-12-06T22:38:57.209Z,3.10
2022-12-06T22:41:26.193Z,3.20
2022-12-06T22:43:58.557Z,3.20
2022-12-06T22:46:27.210Z,3.20
2022-12-06T22:48:55.764Z,3.20
2022-12-06T22:51:26.002Z,3.30
2022-12-06T22:53:58.937Z,3.30
2022-12-06T22:56:28.125Z,3.20
2022-12-06T22:59:00.031Z,3.30
2022-12-06T23:01:31.173Z,3.20
2022-12-06T23:04:00.909Z,3.20
2022-12-06T23:06:28.921Z,3.10
2022-12-06T23:08:56.731Z,3.10
2022-12-06T23:11:30.028Z,3.10
2022-12-06T23:13:58.626Z,3.10
2022-12-06T23:16:28.384Z,3.20
2022-12-06T23:18:56.444Z,3.20
2022-12-06T23:21:42.628Z,3.20
2022-12-06T23:24:13.273Z,3.10
2022-12-06T23:26:47.124Z,3.20
2022-12-06T23:29:16.209Z,3.30
2022-12-06T23:31:46.094Z,3.20
2022-12-06T23:34:20.861Z,3.30
2022-12-06T23:36:49.225Z,3.20
2022-12-06T23:39:16.911Z,3.00
2022-12-06T23:41:44.816Z,3.10
2022-12-06T23:44:12.964Z,3.10
2022-12-06T23:46:42.055Z,3.20
2022-12-06T23:49:18.331Z,3.10
2022-12-06T23:51:46.345Z,3.10
2022-12-06T23:54:16.157Z,3.20
2022-12-06T23:56:44.156Z,3.10
2022-12-06T23:59:14.536Z,3.10
